Time;durP1;ratioP1;P1;durP2;ratioP2;P2;SDS_P1;SDS_P2;PMS_P1;PMS_P2;Temp;Humidity;BMP_temperature;BMP_pressure;BME280_temperature;BME280_humidity;BME280_pressure;Samples;Min_cycle;Max_cycle;Signal;HPM_P1;HPM_P2
2022/01/10 00:00:06;;;;;;;5.80;5.30;;;3.80;99.90;;;;;;5012298;28;20217;-84
2022/01/10 00:02:32;;;;;;;6.00;4.93;;;3.90;99.90;;;;;;5008983;28;20273;-84
2022/01/10 00:04:58;;;;;;;5.30;4.80;;;3.80;99.90;;;;;;5019598;28;20240;-84
2022/01/10 00:07:23;;;;;;;4.63;4.20;;;3.80;99.90;;;;;;5019208;28;20285;-84
2022/01/10 00:09:49;;;;;;;5.70;5.10;;;3.80;99.90;;;;;;5016260;28;20206;-84
2022/01/10 00:12:15;;;;;;;5.90;4.70;;;3.80;99.90;;;;;;5022467;28;20193;-84
2022/01/10 00:14:40;;;;;;;5.93;4.60;;;3.80;99.90;;;;;;5014062;28;20220;-84
2022/01/10 00:17:06;;;;;;;6.20;5.20;;;3.80;99.90;;;;;;5013990;28;20190;-84
2022/01/10 00:19:32;;;;;;;7.30;4.93;;;3.90;99.90;;;;;;5020649;28;20197;-84
2022/01/10 00:21:58;;;;;;;5.57;4.90;;;3.80;99.90;;;;;;5019447;28;20209;-83
2022/01/10 00:24:23;;;;;;;6.30;5.03;;;3.70;99.90;;;;;;5023512;28;20225;-84
2022/01/10 00:26:49;;;;;;;6.00;5.40;;;3.70;99.90;;;;;;5020682;28;20296;-84
2022/01/10 00:29:15;;;;;;;5.37;4.87;;;3.70;99.90;;;;;;5018385;28;20860;-84
2022/01/10 00:31:41;;;;;;;6.47;5.63;;;3.80;99.90;;;;;;5017185;28;20209;-84
2022/01/10 00:34:07;;;;;;;7.03;5.37;;;3.80;99.90;;;;;;5022641;28;20231;-84
2022/01/10 00:36:32;;;;;;;6.70;5.47;;;3.80;99.90;;;;;;5013148;28;20201;-84
2022/01/10 00:38:58;;;;;;;5.93;5.07;;;3.80;99.90;;;;;;5020086;28;20197;-84
2022/01/10 00:41:24;;;;;;;8.63;5.13;;;3.70;99.90;;;;;;5020724;28;20190;-84
2022/01/10 00:43:51;;;;;;;6.13;4.33;;;3.70;99.90;;;;;;5014103;28;20193;-83
2022/01/10 00:46:17;;;;;;;5.27;4.50;;;3.60;99.90;;;;;;5017345;28;20237;-84
2022/01/10 00:48:44;;;;;;;5.00;4.50;;;3.70;99.90;;;;;;5019929;28;20213;-84
2022/01/10 00:51:10;;;;;;;5.13;4.70;;;3.60;99.90;;;;;;5017424;28;20200;-84
2022/01/10 00:53:36;;;;;;;5.47;4.90;;;3.70;99.90;;;;;;5021152;28;20240;-83
2022/01/10 00:56:03;;;;;;;6.20;5.03;;;3.70;99.90;;;;;;5018718;28;20224;-84
2022/01/10 00:58:29;;;;;;;5.77;5.00;;;3.70;99.90;;;;;;5021004;28;20196;-83
2022/01/10 01:00:55;;;;;;;5.67;5.03;;;3.60;99.90;;;;;;5007897;28;20206;-84
2022/01/10 01:03:20;;;;;;;7.50;5.10;;;3.60;99.90;;;;;;5018577;28;20463;-84
2022/01/10 01:05:46;;;;;;;5.93;5.00;;;3.80;99.90;;;;;;5020677;28;20209;-84
2022/01/10 01:08:13;;;;;;;6.70;5.53;;;3.80;99.90;;;;;;5014626;28;20181;-84
2022/01/10 01:13:38;;;;;;;8.23;5.37;;;3.80;99.90;;;;;;5013765;28;20208;-84
2022/01/10 01:24:16;;;;;;;5.17;4.77;;;3.60;99.90;;;;;;5007928;28;20277;-84
2022/01/10 01:26:44;;;;;;;5.90;5.30;;;3.60;99.90;;;;;;5012526;28;20217;-84
2022/01/10 01:29:16;;;;;;;6.67;5.37;;;3.70;99.90;;;;;;5035111;28;20276;-84
2022/01/10 01:31:42;;;;;;;7.30;6.60;;;3.80;99.90;;;;;;5020354;28;20182;-84
2022/01/10 01:34:09;;;;;;;6.87;6.03;;;3.80;99.90;;;;;;5030148;28;20224;-85
2022/01/10 01:36:35;;;;;;;7.97;6.17;;;3.80;99.90;;;;;;5021251;28;20241;-85
2022/01/10 01:39:10;;;;;;;6.67;5.97;;;3.80;99.90;;;;;;5013826;28;20713;-85
2022/01/10 01:41:40;;;;;;;8.10;5.70;;;3.80;99.90;;;;;;5029817;28;20212;-85
2022/01/10 01:44:06;;;;;;;5.90;5.40;;;3.80;99.90;;;;;;5033716;28;20258;-84
2022/01/10 01:46:36;;;;;;;6.93;5.57;;;3.70;99.90;;;;;;5018081;28;20212;-86
2022/01/10 01:49:04;;;;;;;6.57;5.97;;;3.70;99.90;;;;;;5012749;28;20552;-85
2022/01/10 01:51:30;;;;;;;6.00;5.50;;;3.70;99.90;;;;;;5017013;28;20673;-86
2022/01/10 01:53:56;;;;;;;7.37;6.63;;;3.50;99.90;;;;;;5016817;28;20236;-85
2022/01/10 01:56:23;;;;;;;6.67;5.80;;;3.50;99.90;;;;;;5014331;28;20264;-85
2022/01/10 01:58:52;;;;;;;7.40;5.77;;;3.30;99.90;;;;;;5015703;28;20194;-85
2022/01/10 02:01:18;;;;;;;8.20;6.47;;;3.50;99.90;;;;;;5014980;28;20202;-85
2022/01/10 02:03:46;;;;;;;7.33;6.00;;;3.50;99.90;;;;;;5019521;28;20200;-84
2022/01/10 02:06:12;;;;;;;7.13;6.53;;;3.70;99.90;;;;;;5014695;28;20232;-85
2022/01/10 02:08:39;;;;;;;7.47;6.27;;;3.60;99.90;;;;;;5023176;28;20676;-84
2022/01/10 02:11:07;;;;;;;7.23;6.60;;;3.60;99.90;;;;;;5014966;28;20243;-86
2022/01/10 02:13:33;;;;;;;7.33;6.63;;;3.50;99.90;;;;;;5014354;28;20670;-86
2022/01/10 02:16:02;;;;;;;6.57;5.77;;;3.20;99.90;;;;;;5016772;28;20198;-84
2022/01/10 02:18:28;;;;;;;7.03;6.33;;;3.10;99.90;;;;;;5020639;28;20273;-85
2022/01/10 02:20:57;;;;;;;6.63;5.93;;;3.20;99.90;;;;;;5018674;28;20193;-85
2022/01/10 02:23:23;;;;;;;6.20;5.70;;;3.30;99.90;;;;;;5021239;28;20201;-85
2022/01/10 02:25:49;;;;;;;7.07;5.90;;;3.40;99.90;;;;;;5018279;28;20221;-85
2022/01/10 02:28:14;;;;;;;7.40;6.80;;;3.40;99.90;;;;;;5014756;28;20669;-85
2022/01/10 02:30:41;;;;;;;7.43;5.97;;;3.50;99.90;;;;;;5015351;28;20195;-85
2022/01/10 02:33:07;;;;;;;6.73;6.03;;;3.50;99.90;;;;;;5013694;28;20201;-85
2022/01/10 02:35:41;;;;;;;7.53;6.73;;;3.50;99.90;;;;;;5018163;28;20252;-84
2022/01/10 02:38:07;;;;;;;8.87;6.67;;;3.60;99.90;;;;;;5016330;28;20620;-84
2022/01/10 02:40:34;;;;;;;7.60;6.80;;;3.60;99.90;;;;;;5017091;28;20190;-85
2022/01/10 02:43:01;;;;;;;7.83;6.63;;;3.70;99.90;;;;;;5017174;28;20270;-86
2022/01/10 02:45:27;;;;;;;7.90;7.20;;;3.70;99.90;;;;;;5017667;28;20607;-85
2022/01/10 02:47:54;;;;;;;7.20;6.50;;;3.80;99.90;;;;;;5013200;28;20202;-85
2022/01/10 02:50:21;;;;;;;8.50;7.70;;;3.80;99.90;;;;;;5018401;28;20200;-85
2022/01/10 02:52:47;;;;;;;8.47;7.53;;;3.70;99.90;;;;;;5014525;28;20185;-85
2022/01/10 02:55:14;;;;;;;8.00;7.00;;;3.80;99.90;;;;;;5019757;28;20244;-85
2022/01/10 02:57:41;;;;;;;7.57;6.80;;;3.90;99.90;;;;;;5012638;28;20665;-85
2022/01/10 03:00:17;;;;;;;7.23;6.53;;;3.70;99.90;;;;;;5022158;28;20197;-85
2022/01/10 03:02:44;;;;;;;9.33;7.43;;;3.70;99.90;;;;;;5021665;28;20193;-85
2022/01/10 03:05:11;;;;;;;7.53;6.83;;;3.70;99.90;;;;;;5015796;28;20210;-85
2022/01/10 03:07:38;;;;;;;7.90;7.10;;;3.70;99.90;;;;;;5018414;28;20191;-85
2022/01/10 03:10:05;;;;;;;7.43;6.73;;;3.70;99.90;;;;;;5017214;28;20194;-85
2022/01/10 03:12:31;;;;;;;6.93;6.20;;;3.60;99.90;;;;;;5012467;28;20194;-85
2022/01/10 03:15:01;;;;;;;7.27;6.27;;;3.70;99.90;;;;;;5011944;28;20214;-85
2022/01/10 03:17:27;;;;;;;7.83;7.13;;;3.70;99.90;;;;;;5020957;28;20200;-85
2022/01/10 03:19:53;;;;;;;7.83;6.53;;;3.70;99.90;;;;;;5014830;28;20205;-85
2022/01/10 03:22:19;;;;;;;7.93;7.13;;;3.80;99.90;;;;;;5018830;28;20276;-85
2022/01/10 03:24:45;;;;;;;7.57;6.80;;;3.80;99.90;;;;;;5021867;28;20213;-85
2022/01/10 03:27:11;;;;;;;7.27;6.57;;;3.70;99.90;;;;;;5018635;28;20590;-85
2022/01/10 03:29:37;;;;;;;8.80;7.90;;;3.70;99.90;;;;;;5015643;28;20205;-85
2022/01/10 03:32:05;;;;;;;8.23;7.30;;;3.50;99.90;;;;;;5013660;28;20366;-85
2022/01/10 03:34:31;;;;;;;8.80;7.90;;;3.50;99.90;;;;;;5015251;28;20751;-85
2022/01/10 03:36:57;;;;;;;8.43;7.33;;;3.60;99.90;;;;;;5004449;28;20213;-85
2022/01/10 03:39:23;;;;;;;8.23;7.43;;;3.50;99.90;;;;;;5009878;28;20202;-84
2022/01/10 03:41:48;;;;;;;9.07;7.53;;;3.40;99.90;;;;;;5012118;28;20194;-85
2022/01/10 03:44:14;;;;;;;7.93;7.23;;;3.30;99.90;;;;;;5016406;28;20228;-85
2022/01/10 03:46:40;;;;;;;8.37;7.27;;;3.10;99.90;;;;;;5012834;28;20236;-84
2022/01/10 03:49:06;;;;;;;8.87;7.97;;;3.30;99.90;;;;;;5015524;28;20213;-84
2022/01/10 03:51:32;;;;;;;9.07;8.27;;;3.30;99.90;;;;;;5017472;28;20184;-85
2022/01/10 03:53:58;;;;;;;8.37;7.23;;;3.30;99.90;;;;;;5002631;28;20213;-85
2022/01/10 03:56:27;;;;;;;8.40;7.60;;;3.40;99.90;;;;;;5013879;28;20213;-85
2022/01/10 03:58:52;;;;;;;10.00;8.90;;;3.40;99.90;;;;;;5012604;28;20360;-85
2022/01/10 04:01:18;;;;;;;9.40;8.50;;;3.20;99.90;;;;;;5008624;28;20676;-86
2022/01/10 04:03:44;;;;;;;8.80;8.00;;;3.10;99.90;;;;;;5014472;28;20393;-85
2022/01/10 04:06:10;;;;;;;8.43;7.63;;;3.20;99.90;;;;;;5016250;28;20216;-85
2022/01/10 04:08:36;;;;;;;8.90;8.00;;;3.30;99.90;;;;;;5012285;28;20205;-84
2022/01/10 04:11:03;;;;;;;8.60;7.80;;;3.30;99.90;;;;;;5012583;28;20197;-86
2022/01/10 04:13:29;;;;;;;9.37;8.33;;;3.40;99.90;;;;;;5017302;28;20671;-85
2022/01/10 04:15:54;;;;;;;10.33;7.77;;;3.50;99.90;;;;;;5015630;28;20220;-84
2022/01/10 04:18:21;;;;;;;9.50;8.60;;;3.50;99.90;;;;;;5014459;28;20224;-84
2022/01/10 04:20:47;;;;;;;9.97;9.07;;;3.50;99.90;;;;;;5024806;28;20204;-85
2022/01/10 04:23:14;;;;;;;10.20;9.20;;;3.50;99.90;;;;;;5034858;28;20185;-84
2022/01/10 04:25:41;;;;;;;10.33;9.43;;;3.40;99.90;;;;;;5023247;28;20227;-85
2022/01/10 04:28:07;;;;;;;9.10;8.30;;;3.50;99.90;;;;;;5021899;28;20213;-86
2022/01/10 04:30:33;;;;;;;10.33;8.83;;;3.50;99.90;;;;;;5021083;28;20205;-85
2022/01/10 04:33:01;;;;;;;9.20;8.33;;;3.40;99.90;;;;;;5036637;28;20253;-84
2022/01/10 04:35:28;;;;;;;10.67;9.73;;;3.30;99.90;;;;;;5027589;28;20205;-84
2022/01/10 04:37:54;;;;;;;9.33;8.50;;;3.50;99.90;;;;;;5013427;28;20204;-85
2022/01/10 04:40:20;;;;;;;9.20;8.40;;;3.50;99.90;;;;;;5012553;28;20205;-85
2022/01/10 04:42:47;;;;;;;9.60;8.60;;;3.40;99.90;;;;;;5013056;28;20205;-84
2022/01/10 04:45:13;;;;;;;9.00;8.10;;;3.30;99.90;;;;;;5019105;28;20214;-85
2022/01/10 04:47:39;;;;;;;8.33;7.53;;;3.20;99.90;;;;;;5015225;28;20195;-84
2022/01/10 04:52:48;;;;;;;12.47;10.23;;;3.40;99.90;;;;;;5017134;28;20204;-84
2022/01/10 04:55:14;;;;;;;10.27;9.23;;;3.30;99.90;;;;;;5020649;28;20201;-84
2022/01/10 04:57:40;;;;;;;10.00;9.10;;;3.20;99.90;;;;;;5018509;28;20235;-86
2022/01/10 05:00:08;;;;;;;10.17;9.27;;;3.20;99.90;;;;;;5017449;28;20219;-86
2022/01/10 05:02:34;;;;;;;11.90;10.70;;;3.20;99.90;;;;;;5023756;28;20198;-85
2022/01/10 05:05:00;;;;;;;11.50;10.40;;;3.20;99.90;;;;;;5019346;28;20212;-84
2022/01/10 05:07:26;;;;;;;12.17;10.87;;;2.90;99.90;;;;;;5012138;28;20213;-84
2022/01/10 05:09:52;;;;;;;10.10;9.10;;;2.90;99.90;;;;;;5018470;28;20201;-84
2022/01/10 05:12:17;;;;;;;10.03;9.03;;;3.00;99.90;;;;;;5015662;28;20208;-85
2022/01/10 05:14:43;;;;;;;11.67;10.27;;;3.20;99.90;;;;;;5016227;28;20222;-85
2022/01/10 05:17:10;;;;;;;10.53;9.53;;;3.30;99.90;;;;;;5020841;28;20710;-85
2022/01/10 05:19:36;;;;;;;11.50;10.40;;;3.30;99.90;;;;;;5020731;28;20192;-85
2022/01/10 05:22:03;;;;;;;10.67;9.60;;;3.30;99.90;;;;;;5016686;28;20194;-85
2022/01/10 05:24:28;;;;;;;11.00;9.47;;;3.40;99.90;;;;;;5015904;28;20241;-85
2022/01/10 05:26:54;;;;;;;10.63;9.53;;;3.40;99.90;;;;;;5015920;28;20242;-86
2022/01/10 05:29:20;;;;;;;11.73;10.53;;;3.50;99.90;;;;;;5024607;28;20191;-84
2022/01/10 05:31:45;;;;;;;11.20;10.07;;;3.50;99.90;;;;;;5006905;28;20200;-83
2022/01/10 05:34:11;;;;;;;11.00;9.90;;;3.60;99.90;;;;;;5017919;28;20277;-84
2022/01/10 05:36:37;;;;;;;10.83;9.77;;;3.60;99.90;;;;;;5023152;28;20224;-84
2022/01/10 05:39:03;;;;;;;15.87;14.27;;;3.60;99.90;;;;;;5022650;28;20216;-85
2022/01/10 05:41:29;;;;;;;23.80;20.33;;;3.50;99.90;;;;;;5020516;28;20232;-84
2022/01/10 05:43:55;;;;;;;16.77;14.93;;;3.40;99.90;;;;;;5026124;28;20300;-84
2022/01/10 05:46:22;;;;;;;11.93;10.73;;;3.50;99.90;;;;;;5025639;28;20623;-84
2022/01/10 05:48:52;;;;;;;14.70;10.50;;;3.60;99.90;;;;;;5025709;28;20190;-85
2022/01/10 05:51:19;;;;;;;14.43;12.27;;;3.50;99.90;;;;;;5022325;28;20218;-84
2022/01/10 05:53:46;;;;;;;17.30;14.33;;;3.40;99.90;;;;;;5026806;28;20182;-84
2022/01/10 05:56:12;;;;;;;15.53;13.90;;;3.40;99.90;;;;;;5020884;28;20224;-84
2022/01/10 05:58:38;;;;;;;14.50;13.10;;;3.40;99.90;;;;;;5021032;28;20194;-84
2022/01/10 06:01:04;;;;;;;12.13;10.87;;;3.50;99.90;;;;;;5025990;28;20249;-85
2022/01/10 06:03:30;;;;;;;13.27;11.50;;;3.50;99.90;;;;;;5018733;28;20209;-84
2022/01/10 06:05:56;;;;;;;13.23;11.23;;;3.50;99.90;;;;;;5019776;28;20225;-84
2022/01/10 06:08:23;;;;;;;11.90;10.47;;;3.50;99.90;;;;;;5023374;28;20282;-84
2022/01/10 06:10:48;;;;;;;11.60;10.40;;;3.50;99.90;;;;;;5025649;28;20181;-84
2022/01/10 06:13:14;;;;;;;12.63;11.33;;;3.50;99.90;;;;;;5016689;28;20225;-84
2022/01/10 06:15:41;;;;;;;14.13;12.73;;;3.40;99.90;;;;;;5003469;28;20224;-85
2022/01/10 06:18:07;;;;;;;12.93;11.60;;;3.30;99.90;;;;;;5016372;28;20229;-85
2022/01/10 06:20:33;;;;;;;13.37;12.07;;;3.30;99.90;;;;;;5020921;28;20201;-83
2022/01/10 06:22:59;;;;;;;14.47;11.27;;;3.40;99.90;;;;;;5014815;28;20216;-84
2022/01/10 06:25:27;;;;;;;11.67;10.47;;;3.50;99.90;;;;;;5025693;28;20226;-84
2022/01/10 06:27:53;;;;;;;11.67;10.47;;;3.50;99.90;;;;;;5021697;28;20667;-84
2022/01/10 06:30:19;;;;;;;12.83;10.70;;;3.50;99.90;;;;;;5018175;28;20189;-84
2022/01/10 06:32:45;;;;;;;11.57;10.37;;;3.50;99.90;;;;;;5017309;28;20244;-84
2022/01/10 06:35:11;;;;;;;10.87;9.73;;;3.60;99.90;;;;;;5020876;28;20242;-85
2022/01/10 06:37:37;;;;;;;11.83;10.57;;;3.60;99.90;;;;;;5018190;28;20197;-84
2022/01/10 06:40:05;;;;;;;14.20;10.83;;;3.60;99.90;;;;;;5017142;28;20201;-85
2022/01/10 06:42:31;;;;;;;14.10;11.77;;;3.60;99.90;;;;;;5015924;28;20178;-84
2022/01/10 06:44:57;;;;;;;12.87;10.60;;;3.50;99.90;;;;;;5024973;28;20244;-84
2022/01/10 06:47:23;;;;;;;26.67;21.57;;;3.40;99.90;;;;;;5009652;28;20217;-85
2022/01/10 06:49:48;;;;;;;14.90;12.17;;;3.50;99.90;;;;;;5022276;28;20201;-84
2022/01/10 06:52:14;;;;;;;13.00;11.77;;;3.50;99.90;;;;;;5017051;28;20569;-84
2022/01/10 06:54:40;;;;;;;11.13;10.13;;;3.50;99.90;;;;;;5014973;28;20452;-85
2022/01/10 06:57:06;;;;;;;11.97;10.77;;;3.40;99.90;;;;;;5019288;28;20194;-84
2022/01/10 06:59:32;;;;;;;13.10;11.70;;;3.40;99.90;;;;;;5023919;28;20264;-84
2022/01/10 07:01:58;;;;;;;14.00;12.50;;;3.40;99.90;;;;;;5018587;28;20201;-84
2022/01/10 07:04:25;;;;;;;14.43;12.93;;;3.40;99.90;;;;;;5023121;28;20221;-84
2022/01/10 07:06:54;;;;;;;12.97;11.67;;;3.30;99.90;;;;;;5027586;28;20209;-85
2022/01/10 07:09:20;;;;;;;12.37;10.50;;;3.20;99.90;;;;;;5016624;28;20641;-84
2022/01/10 07:11:48;;;;;;;13.40;12.10;;;3.30;99.90;;;;;;5011161;28;20217;-84
2022/01/10 07:14:16;;;;;;;17.00;12.90;;;3.40;99.90;;;;;;5036737;28;20186;-84
2022/01/10 07:16:42;;;;;;;14.40;12.87;;;3.40;99.90;;;;;;5031288;28;20194;-84
2022/01/10 07:19:07;;;;;;;17.47;14.33;;;3.40;99.90;;;;;;5023733;28;20206;-85
2022/01/10 07:21:37;;;;;;;14.63;13.13;;;3.50;99.90;;;;;;5031531;28;20217;-85
2022/01/10 07:24:04;;;;;;;16.17;13.90;;;3.40;99.90;;;;;;5030572;28;20186;-84
2022/01/10 07:26:32;;;;;;;14.60;13.00;;;3.40;99.90;;;;;;5030526;28;20221;-84
2022/01/10 07:28:58;;;;;;;14.83;13.37;;;3.30;99.90;;;;;;5024353;28;20194;-84
2022/01/10 07:31:24;;;;;;;22.07;18.83;;;3.30;99.90;;;;;;5025348;28;20198;-84
2022/01/10 07:33:50;;;;;;;19.67;16.93;;;3.40;99.90;;;;;;5020843;28;20182;-85
2022/01/10 07:36:16;;;;;;;17.33;15.50;;;3.50;99.90;;;;;;5023506;28;20193;-84
2022/01/10 07:38:42;;;;;;;18.10;16.10;;;3.50;99.90;;;;;;5023743;28;20198;-84
2022/01/10 07:41:08;;;;;;;15.27;12.43;;;3.50;99.90;;;;;;5024851;28;20566;-84
2022/01/10 07:43:34;;;;;;;12.83;11.63;;;3.60;99.90;;;;;;5015911;28;20220;-84
2022/01/10 07:46:00;;;;;;;12.70;11.47;;;3.50;99.90;;;;;;5015398;28;20210;-84
2022/01/10 07:48:28;;;;;;;13.10;11.80;;;3.40;99.90;;;;;;5025332;28;20675;-84
2022/01/10 07:50:54;;;;;;;12.90;11.23;;;3.40;99.90;;;;;;5024111;28;20232;-84
2022/01/10 07:53:20;;;;;;;13.77;12.47;;;3.40;99.90;;;;;;5019963;28;20189;-84
2022/01/10 07:55:46;;;;;;;13.27;11.87;;;3.30;99.90;;;;;;5022843;28;20211;-84
2022/01/10 07:58:13;;;;;;;13.60;12.20;;;3.30;99.90;;;;;;5016260;28;20220;-84
2022/01/10 08:00:39;;;;;;;14.23;12.83;;;3.40;99.90;;;;;;5016839;28;20190;-84
2022/01/10 08:03:05;;;;;;;12.73;11.03;;;3.50;99.90;;;;;;5022600;28;20198;-85
2022/01/10 08:05:33;;;;;;;13.27;11.47;;;3.50;99.90;;;;;;5011609;28;20217;-85
2022/01/10 08:07:58;;;;;;;16.43;11.53;;;3.60;99.90;;;;;;5016187;28;20190;-84
2022/01/10 08:10:24;;;;;;;13.20;11.93;;;3.70;99.90;;;;;;5016687;28;20197;-84
2022/01/10 08:12:50;;;;;;;14.17;12.70;;;3.80;99.90;;;;;;5012188;28;20201;-85
2022/01/10 08:15:16;;;;;;;17.93;13.27;;;3.80;99.90;;;;;;5019653;28;20210;-85
2022/01/10 08:17:42;;;;;;;13.80;12.40;;;3.80;99.90;;;;;;5022160;28;20198;-85
2022/01/10 08:20:09;;;;;;;13.17;11.57;;;3.90;99.90;;;;;;5022293;28;20241;-85
2022/01/10 08:22:34;;;;;;;15.13;12.70;;;3.80;99.90;;;;;;5022894;28;20213;-84
2022/01/10 08:25:00;;;;;;;12.83;11.50;;;3.70;99.90;;;;;;5029541;28;20244;-84
2022/01/10 08:27:26;;;;;;;12.73;11.43;;;3.80;99.90;;;;;;5024694;28;20209;-85
2022/01/10 08:29:52;;;;;;;13.90;11.90;;;3.90;99.90;;;;;;5016980;28;20185;-85
2022/01/10 08:32:18;;;;;;;13.67;11.97;;;3.90;99.90;;;;;;5013673;28;20202;-84
2022/01/10 08:34:44;;;;;;;13.80;12.07;;;3.90;99.90;;;;;;5021043;28;20236;-84
2022/01/10 08:37:11;;;;;;;15.37;11.93;;;3.90;99.90;;;;;;5020896;28;20639;-84
2022/01/10 08:39:37;;;;;;;14.13;12.63;;;3.90;99.90;;;;;;5020241;28;20213;-85
2022/01/10 08:42:04;;;;;;;15.17;12.70;;;3.70;99.90;;;;;;5016262;28;20308;-83
2022/01/10 08:44:30;;;;;;;14.40;12.77;;;3.60;99.90;;;;;;5015333;28;20635;-85
2022/01/10 08:46:56;;;;;;;11.17;9.73;;;3.70;99.90;;;;;;5020466;28;20240;-85
2022/01/10 08:49:22;;;;;;;13.80;10.07;;;3.70;99.90;;;;;;5015056;28;20198;-84
2022/01/10 08:51:54;;;;;;;10.70;8.63;;;3.60;99.90;;;;;;5019144;28;20202;-85
2022/01/10 08:54:23;;;;;;;11.50;10.30;;;3.70;99.90;;;;;;5017699;28;20206;-85
2022/01/10 08:56:50;;;;;;;10.03;8.47;;;3.70;99.90;;;;;;5017115;28;20197;-85
2022/01/10 08:59:16;;;;;;;15.17;9.40;;;3.70;99.90;;;;;;5015121;28;20540;-85
2022/01/10 09:01:42;;;;;;;10.70;7.57;;;3.90;99.90;;;;;;5017812;28;20225;-85
2022/01/10 09:04:15;;;;;;;10.97;7.83;;;3.70;99.90;;;;;;5016505;28;20236;-84
2022/01/10 09:06:45;;;;;;;10.77;7.13;;;3.60;99.90;;;;;;5015826;28;20272;-85
2022/01/10 09:09:12;;;;;;;9.53;7.07;;;3.50;99.90;;;;;;5015122;28;20527;-85
2022/01/10 09:11:38;;;;;;;8.93;8.03;;;3.50;99.90;;;;;;5017210;28;20189;-85
2022/01/10 09:14:05;;;;;;;8.27;7.33;;;3.80;99.90;;;;;;5020434;28;20300;-84
2022/01/10 09:16:31;;;;;;;9.93;8.33;;;3.80;99.90;;;;;;5016821;28;20258;-85
2022/01/10 09:18:57;;;;;;;9.47;7.50;;;3.70;99.90;;;;;;5026274;28;20613;-85
2022/01/10 09:21:23;;;;;;;8.13;7.10;;;3.70;99.90;;;;;;5022390;28;20224;-85
2022/01/10 09:23:49;;;;;;;9.50;7.87;;;3.80;99.90;;;;;;5028943;28;20252;-85
2022/01/10 09:26:15;;;;;;;10.87;8.33;;;4.00;99.90;;;;;;5025467;28;20251;-85
2022/01/10 09:28:42;;;;;;;10.77;9.30;;;4.00;99.90;;;;;;5025281;28;20213;-85
2022/01/10 09:31:09;;;;;;;10.00;9.00;;;4.10;99.90;;;;;;5016219;28;20178;-85
2022/01/10 09:33:35;;;;;;;9.60;8.57;;;4.20;99.90;;;;;;5020497;28;20189;-85
2022/01/10 09:36:01;;;;;;;9.90;8.60;;;4.20;99.90;;;;;;5023441;28;20211;-85
2022/01/10 09:38:27;;;;;;;9.43;7.97;;;4.30;99.90;;;;;;5020964;28;20201;-85
2022/01/10 09:40:53;;;;;;;8.63;7.73;;;4.30;99.90;;;;;;5021404;28;20198;-85
2022/01/10 09:43:20;;;;;;;9.47;8.20;;;4.20;99.90;;;;;;5023119;28;20550;-86
2022/01/10 09:45:46;;;;;;;10.90;7.53;;;4.30;99.90;;;;;;5021828;28;20499;-85
2022/01/10 09:48:12;;;;;;;9.40;8.40;;;4.30;99.90;;;;;;5005965;28;20201;-85
2022/01/10 09:50:38;;;;;;;10.73;8.50;;;4.20;99.90;;;;;;5025857;28;20226;-85
2022/01/10 09:53:05;;;;;;;9.00;7.40;;;4.30;99.90;;;;;;5021257;28;20190;-85
2022/01/10 09:55:33;;;;;;;8.40;7.53;;;4.30;99.90;;;;;;5022523;28;20217;-85
2022/01/10 09:57:59;;;;;;;8.00;6.97;;;4.50;99.90;;;;;;5026965;28;20193;-85
2022/01/10 10:00:25;;;;;;;8.23;6.70;;;4.70;99.90;;;;;;5027255;28;20186;-86
2022/01/10 10:02:51;;;;;;;7.90;6.40;;;4.90;99.90;;;;;;5031263;28;20199;-85
2022/01/10 10:05:19;;;;;;;7.83;6.60;;;5.00;99.90;;;;;;5028517;28;20221;-84
2022/01/10 10:07:45;;;;;;;7.97;6.57;;;4.90;99.90;;;;;;5029919;28;20181;-85
2022/01/10 10:10:13;;;;;;;9.30;7.30;;;5.10;99.90;;;;;;5031198;28;20193;-84
2022/01/10 10:12:41;;;;;;;8.47;7.57;;;5.20;99.90;;;;;;5033717;28;20182;-85
2022/01/10 10:15:09;;;;;;;8.53;7.23;;;5.20;99.90;;;;;;5022416;28;20198;-85
2022/01/10 10:17:36;;;;;;;8.00;7.00;;;5.10;99.90;;;;;;5020586;28;20484;-86
2022/01/10 10:20:11;;;;;;;9.30;7.07;;;5.40;99.90;;;;;;5015227;28;20205;-85
2022/01/10 10:22:40;;;;;;;7.50;6.70;;;5.40;99.90;;;;;;5020965;28;20198;-86
2022/01/10 10:25:08;;;;;;;10.93;6.73;;;5.30;99.90;;;;;;5025898;28;20232;-85
2022/01/10 10:27:42;;;;;;;9.70;6.80;;;5.30;99.90;;;;;;5022367;28;20221;-85
2022/01/10 10:30:15;;;;;;;10.80;7.43;;;5.40;99.90;;;;;;5016778;28;20189;-86
2022/01/10 10:32:41;;;;;;;10.00;6.37;;;5.40;99.80;;;;;;5013887;28;20178;-85
2022/01/10 10:35:08;;;;;;;11.07;7.37;;;5.70;99.90;;;;;;5020045;28;20198;-86
2022/01/10 10:37:38;;;;;;;7.43;6.63;;;5.90;98.90;;;;;;5032882;28;20441;-85
2022/01/10 10:40:08;;;;;;;8.47;6.37;;;6.20;96.10;;;;;;5019592;28;20612;-85
2022/01/10 10:42:34;;;;;;;11.73;8.00;;;6.20;95.60;;;;;;5019634;28;20268;-86
2022/01/10 10:45:03;;;;;;;10.77;7.73;;;6.30;95.10;;;;;;5019111;28;20225;-85
2022/01/10 10:47:29;;;;;;;8.40;7.23;;;6.40;95.50;;;;;;5016729;28;20280;-85
2022/01/10 10:49:59;;;;;;;11.50;6.90;;;6.40;93.90;;;;;;5000610;28;20225;-85
2022/01/10 10:52:35;;;;;;;12.90;7.47;;;6.50;95.10;;;;;;5022908;28;20205;-86
2022/01/10 10:55:04;;;;;;;11.83;7.67;;;6.30;95.30;;;;;;5015382;28;20209;-86
2022/01/10 10:57:32;;;;;;;10.67;7.83;;;6.30;96.20;;;;;;5016784;28;20206;-85
2022/01/10 11:00:01;;;;;;;11.67;7.70;;;6.60;94.10;;;;;;5016571;28;20199;-86
2022/01/10 11:02:27;;;;;;;11.20;8.40;;;6.70;94.20;;;;;;5023711;28;20270;-86
2022/01/10 11:04:53;;;;;;;11.47;8.63;;;6.90;93.70;;;;;;5019729;28;20589;-85
2022/01/10 11:07:23;;;;;;;13.30;9.50;;;7.00;93.00;;;;;;5023634;28;20308;-84
2022/01/10 11:09:50;;;;;;;12.37;8.40;;;7.20;92.00;;;;;;5026894;28;20240;-86
2022/01/10 11:12:20;;;;;;;13.67;10.90;;;7.20;93.50;;;;;;5027986;28;20177;-84
2022/01/10 11:14:46;;;;;;;10.73;8.40;;;7.30;92.30;;;;;;5026675;28;20225;-84
2022/01/10 11:17:18;;;;;;;12.67;9.20;;;7.40;90.10;;;;;;5025857;28;20251;-85
2022/01/10 11:19:44;;;;;;;11.33;9.70;;;7.60;89.30;;;;;;5026999;28;20197;-84
2022/01/10 11:22:11;;;;;;;13.70;9.50;;;7.50;88.60;;;;;;5021670;28;20198;-85
2022/01/10 11:24:47;;;;;;;13.87;9.63;;;7.70;88.40;;;;;;5035968;28;20271;-83
2022/01/10 11:27:33;;;;;;;11.37;8.90;;;7.80;88.10;;;;;;5027860;28;20227;-85
2022/01/10 11:30:18;;;;;;;12.80;10.17;;;7.80;88.40;;;;;;5030667;28;20189;-85
2022/01/10 11:33:10;;;;;;;13.27;10.07;;;8.10;87.30;;;;;;5033514;28;20240;-85
2022/01/10 11:35:39;;;;;;;15.63;10.20;;;8.00;87.40;;;;;;5034288;28;20309;-85
2022/01/10 11:38:33;;;;;;;12.23;9.33;;;8.00;85.80;;;;;;5027670;28;20197;-84
2022/01/10 11:41:08;;;;;;;11.07;8.57;;;8.20;85.80;;;;;;5028368;28;20696;-85
2022/01/10 11:43:45;;;;;;;12.63;9.30;;;8.50;83.50;;;;;;5033710;28;20223;-85
2022/01/10 11:46:25;;;;;;;10.50;8.20;;;8.60;84.00;;;;;;5028843;28;20219;-86
2022/01/10 11:48:55;;;;;;;12.13;10.00;;;8.70;85.10;;;;;;5033975;28;20197;-86
2022/01/10 11:51:24;;;;;;;11.60;9.13;;;8.70;83.80;;;;;;5031859;28;20190;-85
2022/01/10 11:53:53;;;;;;;12.87;9.57;;;8.70;81.30;;;;;;5044128;28;20194;-85
2022/01/10 11:56:30;;;;;;;11.47;8.73;;;8.90;79.40;;;;;;5025294;28;20191;-86
2022/01/10 11:59:07;;;;;;;12.03;9.13;;;8.90;81.50;;;;;;5026533;28;20646;-85
2022/01/10 12:01:35;;;;;;;13.67;9.70;;;9.10;82.90;;;;;;5030272;28;20180;-85
2022/01/10 12:04:04;;;;;;;13.57;9.97;;;9.20;80.50;;;;;;5029648;28;20225;-85
2022/01/10 12:06:30;;;;;;;14.33;9.50;;;9.00;82.00;;;;;;5022304;28;20209;-86
2022/01/10 12:08:57;;;;;;;9.27;8.20;;;9.30;81.30;;;;;;5025273;28;20223;-85
2022/01/10 12:11:24;;;;;;;11.47;8.20;;;9.50;80.00;;;;;;5029311;28;20220;-85
2022/01/10 12:13:55;;;;;;;12.70;8.87;;;9.80;77.40;;;;;;5028523;28;20254;-84
2022/01/10 12:16:22;;;;;;;11.17;9.27;;;10.00;76.50;;;;;;5028654;28;20546;-87
2022/01/10 12:18:48;;;;;;;10.77;8.90;;;10.00;77.10;;;;;;5025270;28;20209;-84
2022/01/10 12:21:15;;;;;;;10.60;8.20;;;10.00;73.20;;;;;;5029306;28;20199;-85
2022/01/10 12:23:42;;;;;;;10.33;8.33;;;9.70;73.40;;;;;;5026347;28;20202;-86
2022/01/10 12:26:08;;;;;;;14.17;8.23;;;9.80;74.10;;;;;;5032318;28;20225;-85
2022/01/10 12:28:34;;;;;;;10.00;7.67;;;9.90;74.40;;;;;;5022638;28;20199;-85
2022/01/10 12:31:03;;;;;;;11.10;7.70;;;9.60;73.60;;;;;;5025401;28;20192;-84
2022/01/10 12:33:29;;;;;;;12.23;7.73;;;9.10;75.00;;;;;;5026279;28;20190;-85
2022/01/10 12:35:55;;;;;;;9.73;7.27;;;8.90;75.50;;;;;;5015866;28;20653;-84
2022/01/10 12:38:23;;;;;;;9.20;7.20;;;8.70;75.80;;;;;;5028888;28;20212;-86
2022/01/10 12:40:49;;;;;;;11.37;7.30;;;8.60;75.60;;;;;;5019970;28;20197;-85
2022/01/10 12:43:15;;;;;;;13.83;7.33;;;8.70;75.00;;;;;;5017916;28;20205;-85
2022/01/10 12:45:42;;;;;;;11.27;6.90;;;8.60;74.80;;;;;;5019116;28;20221;-85
2022/01/10 12:48:11;;;;;;;9.23;5.83;;;8.40;76.00;;;;;;5027456;28;20213;-83
2022/01/10 12:50:41;;;;;;;14.67;10.40;;;8.20;76.50;;;;;;5026893;28;20197;-85
2022/01/10 12:53:07;;;;;;;17.07;13.50;;;8.10;76.70;;;;;;5020691;28;20221;-85
2022/01/10 12:55:33;;;;;;;12.57;9.43;;;8.10;77.40;;;;;;5025262;28;20212;-83
2022/01/10 12:58:00;;;;;;;13.27;9.50;;;8.20;78.30;;;;;;5038217;28;20157;-84
2022/01/10 13:00:28;;;;;;;11.03;7.23;;;8.20;78.10;;;;;;5032675;28;20328;-85